createdAt,value
2023-01-08T00:00:44.345Z,13.14
2023-01-08T00:01:41.896Z,12.69
2023-01-08T00:02:39.331Z,12.67
2023-01-08T00:03:37.787Z,13.35
2023-01-08T00:04:35.252Z,13.81
2023-01-08T00:05:32.658Z,14.09
2023-01-08T00:06:29.984Z,14.60
2023-01-08T00:07:27.509Z,15.11
2023-01-08T00:08:24.885Z,14.33
2023-01-08T00:09:22.270Z,14.62
2023-01-08T00:10:19.622Z,14.71
2023-01-08T00:11:17.379Z,15.58
2023-01-08T00:12:14.748Z,15.93
2023-01-08T00:13:12.694Z,16.56
2023-01-08T00:14:10.386Z,17.16
2023-01-08T00:15:16.762Z,17.02
2023-01-08T00:16:16.586Z,16.77
2023-01-08T00:17:14.033Z,16.03
2023-01-08T00:18:11.375Z,16.22
2023-01-08T00:19:08.761Z,17.02
2023-01-08T00:20:06.411Z,17.50
2023-01-08T00:21:03.978Z,17.42
2023-01-08T00:22:01.370Z,16.40
2023-01-08T00:22:58.754Z,18.12
2023-01-08T00:23:56.199Z,18.22
2023-01-08T00:24:53.563Z,18.23
2023-01-08T00:25:51.005Z,19.86
2023-01-08T00:26:48.364Z,21.42
2023-01-08T00:27:46.443Z,20.76
2023-01-08T00:28:43.857Z,21.63
2023-01-08T00:29:41.236Z,22.08
2023-01-08T00:30:38.652Z,22.21
2023-01-08T00:31:36.017Z,23.05
2023-01-08T00:32:33.407Z,23.22
2023-01-08T00:33:31.732Z,21.63
2023-01-08T00:34:29.053Z,21.81
2023-01-08T00:35:26.494Z,21.57
2023-01-08T00:36:23.884Z,21.16
2023-01-08T00:37:21.301Z,21.25
2023-01-08T00:38:18.708Z,20.97
2023-01-08T00:39:16.286Z,21.48
2023-01-08T00:40:13.698Z,21.97
2023-01-08T00:41:12.326Z,21.51
2023-01-08T00:42:09.765Z,22.60
2023-01-08T00:43:07.273Z,23.19
2023-01-08T00:44:04.711Z,22.35
2023-01-08T00:45:02.103Z,22.55
2023-01-08T00:45:59.497Z,21.31
2023-01-08T00:46:56.930Z,19.51
2023-01-08T00:47:54.287Z,18.69
2023-01-08T00:48:51.619Z,18.79
2023-01-08T00:49:49.012Z,19.29
2023-01-08T00:50:46.408Z,19.47
2023-01-08T00:51:43.795Z,19.28
2023-01-08T00:52:41.167Z,18.58
2023-01-08T00:53:38.645Z,18.20
2023-01-08T00:54:36.053Z,17.87
2023-01-08T00:55:33.455Z,17.46
2023-01-08T00:56:30.852Z,17.47
2023-01-08T00:57:32.556Z,17.55
2023-01-08T00:58:30.344Z,18.29
2023-01-08T00:59:27.697Z,19.25
2023-01-08T01:00:25.465Z,20.25
2023-01-08T01:01:23.559Z,19.22
2023-01-08T01:02:21.037Z,19.41
2023-01-08T01:03:18.467Z,20.86
2023-01-08T01:04:15.952Z,22.07
2023-01-08T01:05:15.594Z,20.90
2023-01-08T01:06:13.775Z,21.47
2023-01-08T01:07:11.173Z,21.84
2023-01-08T01:08:08.651Z,21.45
2023-01-08T01:09:05.973Z,21.22
2023-01-08T01:10:03.717Z,20.75
2023-01-08T01:11:01.048Z,21.90
2023-01-08T01:11:58.462Z,20.33
2023-01-08T01:12:55.818Z,19.94
2023-01-08T01:13:54.777Z,19.54
2023-01-08T01:14:52.145Z,21.17
2023-01-08T01:15:59.198Z,20.69
2023-01-08T01:16:56.645Z,20.84
2023-01-08T01:17:54.024Z,20.82
2023-01-08T01:18:52.465Z,20.45
2023-01-08T01:19:49.820Z,21.43
2023-01-08T01:20:47.202Z,20.69
2023-01-08T01:21:44.685Z,20.45
2023-01-08T01:22:42.171Z,20.46
2023-01-08T01:23:39.517Z,21.91
2023-01-08T01:24:36.981Z,20.30
2023-01-08T01:25:37.157Z,22.22
2023-01-08T01:26:34.582Z,23.60
2023-01-08T01:27:32.014Z,28.44
2023-01-08T01:28:29.353Z,30.42
2023-01-08T01:29:26.827Z,28.38
2023-01-08T01:30:24.210Z,33.67
2023-01-08T01:31:22.419Z,40.30
2023-01-08T01:32:19.869Z,42.56
2023-01-08T01:33:17.265Z,39.53
2023-01-08T01:34:14.625Z,38.50
2023-01-08T01:35:11.956Z,35.02
2023-01-08T01:36:11.237Z,33.99
2023-01-08T01:37:09.286Z,29.39
2023-01-08T01:38:06.603Z,22.16
2023-01-08T01:39:04.635Z,21.79
2023-01-08T01:40:01.990Z,21.14
2023-01-08T01:40:59.929Z,20.30
2023-01-08T01:41:57.245Z,21.94
2023-01-08T01:42:54.612Z,20.66
2023-01-08T01:43:52.933Z,19.28
2023-01-08T01:44:50.283Z,19.19
2023-01-08T01:45:47.757Z,18.52
2023-01-08T01:46:45.238Z,19.74
2023-01-08T01:47:45.383Z,18.54
2023-01-08T01:48:43.573Z,17.65
2023-01-08T01:49:43.753Z,17.56
2023-01-08T01:50:46.612Z,16.90
2023-01-08T01:51:49.496Z,16.54
2023-01-08T01:52:56.534Z,16.74
2023-01-08T01:53:54.176Z,17.35
2023-01-08T01:54:52.746Z,16.87
2023-01-08T01:55:50.981Z,17.76
2023-01-08T01:56:48.590Z,17.73
2023-01-08T01:57:50.309Z,17.06
2023-01-08T01:58:47.692Z,16.65
2023-01-08T01:59:47.644Z,18.16
2023-01-08T02:00:45.008Z,19.65
2023-01-08T02:01:43.431Z,18.37
2023-01-08T02:02:40.941Z,18.33
2023-01-08T02:03:39.677Z,19.64
2023-01-08T02:04:37.326Z,21.53
2023-01-08T02:05:46.527Z,20.86
2023-01-08T02:06:53.634Z,20.73
2023-01-08T02:08:03.692Z,21.78
2023-01-08T02:09:06.900Z,20.62
2023-01-08T02:10:20.481Z,21.18
2023-01-08T02:11:25.186Z,21.29
2023-01-08T02:12:30.778Z,20.54
2023-01-08T02:13:34.726Z,21.65
2023-01-08T02:14:43.478Z,21.28
2023-01-08T02:15:56.706Z,22.29
2023-01-08T02:17:10.801Z,21.95
2023-01-08T02:18:16.586Z,23.65
2023-01-08T02:19:19.426Z,23.48
2023-01-08T02:20:37.926Z,25.01
2023-01-08T02:21:44.097Z,23.44
2023-01-08T02:22:47.384Z,23.52
2023-01-08T02:23:55.958Z,23.15
2023-01-08T02:25:02.509Z,25.47
2023-01-08T02:26:17.930Z,23.53
2023-01-08T02:27:17.952Z,24.42
2023-01-08T02:28:16.658Z,24.99
2023-01-08T02:29:23.044Z,25.22
2023-01-08T02:30:20.749Z,25.30
2023-01-08T02:31:21.191Z,25.97
2023-01-08T02:32:18.660Z,25.30
2023-01-08T02:33:16.119Z,25.94
2023-01-08T02:34:13.481Z,25.68
2023-01-08T02:35:11.842Z,24.50
2023-01-08T02:36:28.996Z,24.70
2023-01-08T02:37:26.390Z,24.84
2023-01-08T02:38:25.366Z,23.92
2023-01-08T02:39:31.735Z,24.57
2023-01-08T02:40:39.900Z,25.05
2023-01-08T02:41:43.052Z,23.38
2023-01-08T02:42:40.396Z,22.25
2023-01-08T02:43:45.255Z,21.64
2023-01-08T02:44:56.387Z,22.57
2023-01-08T02:45:58.228Z,21.35
2023-01-08T02:46:58.131Z,21.01
2023-01-08T02:48:17.375Z,22.45
2023-01-08T02:49:16.982Z,21.11
2023-01-08T02:50:20.679Z,20.47
2023-01-08T02:51:24.164Z,19.81
2023-01-08T02:52:25.421Z,18.88
2023-01-08T02:53:28.905Z,20.94
2023-01-08T02:54:30.997Z,21.09
2023-01-08T02:55:30.966Z,20.79
2023-01-08T02:56:32.688Z,20.99
2023-01-08T02:57:33.033Z,21.54
2023-01-08T02:58:32.773Z,20.95
2023-01-08T02:59:32.106Z,21.44
2023-01-08T03:00:31.589Z,21.24
2023-01-08T03:01:30.066Z,20.56
2023-01-08T03:02:32.508Z,20.13
2023-01-08T03:03:31.150Z,20.96
2023-01-08T03:04:31.833Z,20.44
2023-01-08T03:05:29.225Z,19.82
2023-01-08T03:06:27.336Z,20.39
2023-01-08T03:07:24.753Z,20.94
2023-01-08T03:08:23.498Z,20.70
2023-01-08T03:09:21.367Z,21.01
2023-01-08T03:10:22.876Z,20.88
2023-01-08T03:11:22.212Z,21.05
2023-01-08T03:12:35.233Z,20.42
2023-01-08T03:13:33.170Z,20.29
2023-01-08T03:14:38.175Z,20.29
2023-01-08T03:15:41.142Z,20.11
2023-01-08T03:16:42.045Z,19.94
2023-01-08T03:17:44.413Z,18.64
2023-01-08T03:18:46.513Z,17.63
2023-01-08T03:19:50.345Z,17.45
2023-01-08T03:20:49.658Z,17.04
2023-01-08T03:21:48.792Z,15.90
2023-01-08T03:22:49.437Z,16.47
2023-01-08T03:23:48.629Z,16.31
2023-01-08T03:24:49.339Z,15.01
2023-01-08T03:25:47.987Z,14.32
2023-01-08T03:26:49.149Z,14.15
2023-01-08T03:27:51.296Z,13.80
2023-01-08T03:28:52.772Z,14.27
2023-01-08T03:29:52.891Z,13.29
2023-01-08T03:30:53.150Z,13.44
2023-01-08T03:31:53.074Z,12.99
2023-01-08T03:32:51.577Z,12.09
2023-01-08T03:33:49.924Z,11.32
2023-01-08T03:34:50.389Z,11.29
2023-01-08T03:35:51.319Z,10.71
2023-01-08T03:36:51.249Z,10.57
2023-01-08T03:37:55.101Z,10.25
2023-01-08T03:39:00.933Z,10.16
2023-01-08T03:40:05.710Z,8.69
2023-01-08T03:41:10.680Z,8.44
2023-01-08T03:42:11.055Z,8.53
2023-01-08T03:43:08.480Z,8.92
2023-01-08T03:44:05.987Z,9.54
2023-01-08T03:45:03.642Z,8.72
2023-01-08T03:46:03.893Z,8.74
2023-01-08T03:47:03.422Z,8.82
2023-01-08T03:48:03.724Z,9.03
2023-01-08T03:49:03.929Z,9.53
2023-01-08T03:50:03.091Z,10.77
2023-01-08T03:51:00.644Z,10.62
2023-01-08T03:51:58.063Z,11.19
2023-01-08T03:52:55.609Z,13.52
2023-01-08T03:53:58.632Z,15.94
2023-01-08T03:54:56.661Z,15.29
2023-01-08T03:55:54.600Z,16.96
2023-01-08T03:56:51.929Z,17.64
2023-01-08T03:57:49.362Z,16.60
2023-01-08T03:58:47.142Z,16.71
2023-01-08T03:59:44.621Z,18.46
2023-01-08T04:00:42.047Z,17.76
2023-01-08T04:01:39.931Z,17.39
2023-01-08T04:02:37.398Z,17.38
2023-01-08T04:03:34.750Z,17.31
2023-01-08T04:04:32.192Z,17.77
2023-01-08T04:05:29.572Z,18.74
2023-01-08T04:06:26.894Z,18.06
2023-01-08T04:07:24.346Z,17.47
2023-01-08T04:08:21.753Z,18.48
2023-01-08T04:09:19.231Z,18.65
2023-01-08T04:10:16.633Z,19.26
2023-01-08T04:11:14.125Z,19.35
2023-01-08T04:12:11.479Z,19.32
2023-01-08T04:13:08.829Z,19.04
2023-01-08T04:14:06.277Z,19.01
2023-01-08T04:15:04.157Z,18.35
2023-01-08T04:16:01.572Z,18.96
2023-01-08T04:16:59.086Z,18.93
2023-01-08T04:17:56.482Z,19.29
2023-01-08T04:18:54.011Z,19.12
2023-01-08T04:19:51.348Z,18.40
2023-01-08T04:20:48.701Z,19.11
2023-01-08T04:21:46.073Z,18.91
2023-01-08T04:22:43.495Z,18.75
2023-01-08T04:23:40.852Z,18.62
2023-01-08T04:24:38.716Z,18.95
2023-01-08T04:25:38.315Z,18.87
2023-01-08T04:26:35.718Z,18.67
2023-01-08T04:27:33.167Z,19.32
2023-01-08T04:28:30.715Z,18.86
2023-01-08T04:29:28.091Z,19.17
2023-01-08T04:30:25.509Z,18.28
2023-01-08T04:31:22.932Z,18.89
2023-01-08T04:32:20.393Z,19.78
2023-01-08T04:33:17.845Z,20.48
2023-01-08T04:34:15.341Z,19.90
2023-01-08T04:35:12.758Z,19.40
2023-01-08T04:36:10.149Z,18.31
2023-01-08T04:37:07.494Z,18.37
2023-01-08T04:38:04.871Z,17.89
2023-01-08T04:39:02.340Z,18.16
2023-01-08T04:39:59.708Z,18.04
2023-01-08T04:40:58.523Z,18.01
2023-01-08T04:41:55.853Z,18.32
2023-01-08T04:42:53.217Z,16.82
2023-01-08T04:43:50.538Z,16.96
2023-01-08T04:44:47.874Z,17.05
2023-01-08T04:45:45.291Z,16.96
2023-01-08T04:46:42.733Z,17.02
2023-01-08T04:47:40.220Z,16.04
2023-01-08T04:48:37.775Z,15.84
2023-01-08T04:49:35.151Z,16.35
2023-01-08T04:50:32.518Z,16.06
2023-01-08T04:51:29.865Z,15.01
2023-01-08T04:52:28.529Z,14.75
2023-01-08T04:53:27.102Z,14.04
2023-01-08T04:54:24.551Z,14.41
2023-01-08T04:55:21.955Z,14.41
2023-01-08T04:56:19.304Z,13.73
2023-01-08T04:57:16.682Z,13.65
2023-01-08T04:58:14.079Z,13.34
2023-01-08T04:59:11.433Z,13.55
2023-01-08T05:00:09.020Z,13.44
2023-01-08T05:01:12.482Z,13.34
2023-01-08T05:02:10.239Z,12.86
2023-01-08T05:03:07.750Z,12.54
2023-01-08T05:04:05.681Z,12.83
2023-01-08T05:05:03.085Z,12.74
2023-01-08T05:06:00.660Z,13.05
2023-01-08T05:06:57.991Z,12.27
2023-01-08T05:07:55.408Z,12.93
2023-01-08T05:08:52.799Z,12.38
2023-01-08T05:09:50.159Z,12.48
2023-01-08T05:10:47.506Z,11.88
2023-01-08T05:11:44.880Z,12.06
2023-01-08T05:12:42.229Z,11.70
2023-01-08T05:13:39.552Z,11.94
2023-01-08T05:14:36.855Z,12.19
2023-01-08T05:15:34.279Z,13.17
2023-01-08T05:16:32.259Z,13.27
2023-01-08T05:17:29.636Z,11.86
2023-01-08T05:18:27.550Z,13.11
2023-01-08T05:19:24.843Z,13.35
2023-01-08T05:20:22.152Z,12.25
2023-01-08T05:21:19.547Z,12.52
2023-01-08T05:22:16.939Z,11.83
2023-01-08T05:23:14.339Z,11.97
2023-01-08T05:24:11.703Z,12.04
2023-01-08T05:25:09.184Z,12.54
2023-01-08T05:26:07.065Z,12.36
2023-01-08T05:27:04.461Z,12.49
2023-01-08T05:28:02.269Z,12.62
2023-01-08T05:28:59.673Z,11.84
2023-01-08T05:29:57.063Z,13.31
2023-01-08T05:30:55.259Z,12.70
2023-01-08T05:31:52.621Z,11.95
2023-01-08T05:32:50.071Z,11.85
2023-01-08T05:33:47.971Z,11.95
2023-01-08T05:34:45.505Z,11.74
2023-01-08T05:35:42.882Z,11.78
2023-01-08T05:36:40.307Z,11.97
2023-01-08T05:37:37.974Z,12.13
2023-01-08T05:38:35.354Z,12.59
2023-01-08T05:39:32.778Z,12.31
2023-01-08T05:40:30.204Z,12.77
2023-01-08T05:41:27.760Z,12.73
2023-01-08T05:42:25.116Z,13.82
2023-01-08T05:43:22.479Z,14.16
2023-01-08T05:44:19.819Z,13.58
2023-01-08T05:45:17.231Z,13.85
2023-01-08T05:46:14.659Z,13.57
2023-01-08T05:47:12.023Z,13.81
2023-01-08T05:48:09.418Z,15.38
2023-01-08T05:49:06.783Z,14.16
2023-01-08T05:50:04.308Z,14.51
2023-01-08T05:51:01.921Z,14.81
2023-01-08T05:52:01.478Z,14.79
2023-01-08T05:52:59.660Z,14.25
2023-01-08T05:53:57.828Z,14.25
2023-01-08T05:54:55.386Z,14.79
2023-01-08T05:55:52.708Z,14.48
2023-01-08T05:56:50.145Z,13.97
2023-01-08T05:57:47.573Z,14.10
2023-01-08T05:58:44.928Z,13.64
2023-01-08T05:59:42.225Z,12.62
2023-01-08T06:00:39.668Z,13.08
2023-01-08T06:01:37.075Z,13.53
2023-01-08T06:02:34.585Z,12.83
2023-01-08T06:03:32.069Z,12.27
2023-01-08T06:04:29.461Z,12.52
2023-01-08T06:05:26.947Z,12.93
2023-01-08T06:06:24.359Z,12.93
2023-01-08T06:07:21.737Z,12.66
2023-01-08T06:08:19.080Z,12.17
2023-01-08T06:09:16.428Z,13.09
2023-01-08T06:10:13.896Z,13.43
2023-01-08T06:11:12.102Z,13.42
2023-01-08T06:12:09.419Z,13.31
2023-01-08T06:13:07.744Z,13.11
2023-01-08T06:14:05.067Z,12.36
2023-01-08T06:15:02.435Z,12.31
2023-01-08T06:16:00.628Z,12.92
2023-01-08T06:16:58.100Z,13.81
2023-01-08T06:17:55.495Z,14.03
2023-01-08T06:18:52.851Z,13.75
2023-01-08T06:19:50.213Z,13.52
2023-01-08T06:20:47.588Z,14.05
2023-01-08T06:21:44.976Z,14.50
2023-01-08T06:22:42.313Z,16.33
2023-01-08T06:23:40.029Z,21.51
2023-01-08T06:24:37.420Z,32.73
2023-01-08T06:25:34.891Z,72.98
2023-01-08T06:26:32.305Z,25.65
2023-01-08T06:27:30.143Z,30.43
2023-01-08T06:28:27.462Z,31.87
2023-01-08T06:29:25.027Z,32.36
2023-01-08T06:30:22.354Z,36.19
2023-01-08T06:31:19.745Z,32.04
2023-01-08T06:32:17.072Z,34.40
2023-01-08T06:33:14.969Z,26.92
2023-01-08T06:34:12.326Z,21.79
2023-01-08T06:35:09.663Z,21.88
2023-01-08T06:36:07.272Z,20.56
2023-01-08T06:37:04.663Z,21.24
2023-01-08T06:38:01.992Z,22.14
2023-01-08T06:38:59.527Z,22.83
2023-01-08T06:39:56.931Z,24.55
2023-01-08T06:40:54.405Z,26.79
2023-01-08T06:41:51.787Z,27.92
2023-01-08T06:42:49.406Z,29.21
2023-01-08T06:43:46.791Z,29.90
2023-01-08T06:44:44.261Z,29.18
2023-01-08T06:45:41.643Z,29.58
2023-01-08T06:46:40.516Z,30.00
2023-01-08T06:47:37.906Z,31.14
2023-01-08T06:48:35.507Z,29.47
2023-01-08T06:49:32.874Z,30.51
2023-01-08T06:50:31.109Z,30.70
2023-01-08T06:51:28.501Z,32.37
2023-01-08T06:52:25.924Z,35.03
2023-01-08T06:53:23.488Z,34.46
2023-01-08T06:54:20.838Z,33.10
2023-01-08T06:55:18.209Z,33.13
2023-01-08T06:56:15.569Z,33.95
2023-01-08T06:57:12.912Z,33.98
2023-01-08T06:58:12.354Z,35.01
2023-01-08T06:59:09.716Z,35.34
2023-01-08T07:00:07.467Z,34.73
2023-01-08T07:01:05.285Z,34.76
2023-01-08T07:02:02.749Z,34.49
2023-01-08T07:03:00.370Z,33.79
2023-01-08T07:03:57.879Z,31.69
2023-01-08T07:04:55.193Z,34.69
2023-01-08T07:05:52.857Z,32.19
2023-01-08T07:06:50.261Z,31.34
2023-01-08T07:07:47.679Z,30.96
2023-01-08T07:08:45.450Z,31.07
2023-01-08T07:09:42.929Z,30.16
2023-01-08T07:10:40.653Z,29.21
2023-01-08T07:11:38.065Z,28.47
2023-01-08T07:12:35.506Z,27.95
2023-01-08T07:13:32.971Z,27.23
2023-01-08T07:14:30.861Z,27.01
2023-01-08T07:15:28.198Z,27.40
2023-01-08T07:16:25.718Z,28.98
2023-01-08T07:17:23.141Z,29.52
2023-01-08T07:18:20.530Z,29.32
2023-01-08T07:19:17.983Z,29.01
2023-01-08T07:20:15.336Z,27.05
2023-01-08T07:21:12.672Z,25.54
2023-01-08T07:22:09.982Z,25.59
2023-01-08T07:23:10.279Z,24.92
2023-01-08T07:24:07.846Z,24.13
2023-01-08T07:25:05.585Z,25.19
2023-01-08T07:26:04.674Z,24.62
2023-01-08T07:27:02.057Z,24.86
2023-01-08T07:27:59.810Z,23.68
2023-01-08T07:28:57.198Z,23.56
2023-01-08T07:29:56.003Z,69.09
2023-01-08T07:30:53.501Z,57.86
2023-01-08T07:31:50.883Z,40.32
2023-01-08T07:32:48.305Z,27.09
2023-01-08T07:33:45.745Z,25.03
2023-01-08T07:34:43.130Z,25.32
2023-01-08T07:35:40.640Z,25.67
2023-01-08T07:36:38.034Z,24.30
2023-01-08T07:37:39.183Z,24.95
2023-01-08T07:38:36.559Z,25.11
2023-01-08T07:39:34.263Z,25.64
2023-01-08T07:40:32.150Z,25.45
2023-01-08T07:41:29.504Z,26.32
2023-01-08T07:42:26.959Z,25.41
2023-01-08T07:43:25.288Z,25.88
2023-01-08T07:44:22.635Z,25.10
2023-01-08T07:45:20.029Z,23.88
2023-01-08T07:46:17.504Z,23.78
2023-01-08T07:47:14.854Z,23.86
2023-01-08T07:48:15.937Z,23.79
2023-01-08T07:49:13.262Z,23.10
2023-01-08T07:50:10.753Z,22.38
2023-01-08T07:51:08.524Z,22.06
2023-01-08T07:52:05.932Z,22.06
2023-01-08T07:53:03.263Z,21.20
2023-01-08T07:54:01.280Z,20.88
2023-01-08T07:54:59.760Z,21.24
2023-01-08T07:56:00.756Z,22.52
2023-01-08T07:56:58.165Z,21.23
2023-01-08T07:57:55.870Z,20.99
2023-01-08T07:58:53.342Z,21.01
2023-01-08T07:59:50.679Z,20.93
2023-01-08T08:00:48.064Z,21.05
2023-01-08T08:01:45.518Z,20.39
2023-01-08T08:02:43.131Z,20.22
2023-01-08T08:03:41.739Z,20.15
2023-01-08T08:04:39.293Z,21.02
2023-01-08T08:05:37.344Z,20.36
2023-01-08T08:06:34.710Z,20.84
2023-01-08T08:07:32.096Z,21.14
2023-01-08T08:08:29.643Z,21.38
2023-01-08T08:09:26.948Z,21.38
2023-01-08T08:10:24.344Z,20.85
2023-01-08T08:11:21.685Z,20.73
2023-01-08T08:12:19.048Z,21.33
2023-01-08T08:13:16.421Z,20.87
2023-01-08T08:14:13.846Z,21.77
2023-01-08T08:15:11.358Z,21.85
2023-01-08T08:16:08.844Z,22.22
2023-01-08T08:17:06.403Z,22.31
2023-01-08T08:18:04.523Z,22.47
2023-01-08T08:19:01.922Z,23.01
2023-01-08T08:19:59.368Z,23.21
2023-01-08T08:20:58.164Z,23.14
2023-01-08T08:21:55.543Z,24.93
2023-01-08T08:22:59.868Z,25.40
2023-01-08T08:23:57.851Z,25.83
2023-01-08T08:24:55.142Z,26.89
2023-01-08T08:25:52.635Z,26.07
2023-01-08T08:26:51.183Z,27.59
2023-01-08T08:27:48.517Z,28.51
2023-01-08T08:28:45.909Z,28.24
2023-01-08T08:29:43.299Z,29.27
2023-01-08T08:30:42.624Z,28.19
2023-01-08T08:31:40.209Z,26.20
2023-01-08T08:32:38.156Z,26.79
2023-01-08T08:33:35.602Z,28.30
2023-01-08T08:34:33.429Z,28.05
2023-01-08T08:35:31.643Z,28.53
2023-01-08T08:36:29.496Z,30.99
2023-01-08T08:37:26.884Z,32.77
2023-01-08T08:38:25.432Z,34.25
2023-01-08T08:39:22.856Z,33.32
2023-01-08T08:40:20.369Z,34.57
2023-01-08T08:41:17.734Z,34.50
2023-01-08T08:42:15.195Z,33.40
2023-01-08T08:43:12.613Z,32.13
2023-01-08T08:44:10.016Z,31.45
2023-01-08T08:45:07.828Z,31.13
2023-01-08T08:46:05.317Z,31.17
2023-01-08T08:47:02.783Z,31.90
2023-01-08T08:48:00.318Z,31.49
2023-01-08T08:48:57.674Z,33.67
2023-01-08T08:49:55.101Z,33.88
2023-01-08T08:50:52.529Z,34.68
2023-01-08T08:51:49.929Z,32.73
2023-01-08T08:52:48.972Z,32.75
2023-01-08T08:53:46.399Z,33.47
2023-01-08T08:54:43.815Z,33.81
2023-01-08T08:55:41.251Z,34.13
2023-01-08T08:56:38.515Z,33.26
2023-01-08T08:57:35.834Z,32.51
2023-01-08T08:58:33.199Z,33.37
2023-01-08T08:59:30.684Z,35.79
2023-01-08T09:00:28.092Z,34.86
2023-01-08T09:01:25.614Z,35.21
2023-01-08T09:02:23.131Z,35.80
2023-01-08T09:16:38.815Z,34.84
2023-01-08T09:17:37.003Z,35.76
2023-01-08T09:18:34.413Z,36.42
2023-01-08T09:19:31.910Z,35.37
2023-01-08T09:20:29.881Z,34.58
2023-01-08T09:21:27.217Z,34.70
2023-01-08T09:22:24.554Z,34.20
2023-01-08T09:23:21.872Z,33.93
2023-01-08T09:24:19.290Z,32.85
2023-01-08T09:25:16.924Z,35.69
2023-01-08T09:26:14.373Z,37.82
2023-01-08T09:27:11.776Z,34.94
2023-01-08T09:28:12.203Z,34.70
2023-01-08T09:29:09.598Z,34.00
2023-01-08T09:30:07.506Z,33.62
2023-01-08T09:31:05.114Z,33.34
2023-01-08T09:32:02.583Z,35.37
2023-01-08T09:33:02.785Z,35.32
2023-01-08T09:34:00.429Z,37.00
2023-01-08T09:34:57.975Z,37.01
2023-01-08T09:35:55.316Z,38.09
2023-01-08T09:36:52.721Z,36.04
2023-01-08T09:37:51.076Z,34.13
2023-01-08T09:38:48.489Z,35.31
2023-01-08T09:39:51.006Z,35.43
2023-01-08T09:40:54.408Z,35.40
2023-01-08T09:41:51.928Z,35.92
2023-01-08T09:42:54.285Z,36.86
2023-01-08T09:43:54.190Z,35.30
2023-01-08T09:44:55.559Z,34.33
2023-01-08T09:45:55.861Z,34.00
2023-01-08T09:46:55.798Z,34.54
2023-01-08T09:47:54.294Z,34.48
2023-01-08T09:48:52.845Z,33.80
2023-01-08T09:49:52.830Z,34.28
2023-01-08T09:50:50.242Z,35.60
2023-01-08T09:51:47.778Z,34.55
2023-01-08T09:52:45.896Z,33.73
2023-01-08T09:53:44.649Z,32.84
2023-01-08T09:54:42.132Z,32.97
2023-01-08T09:55:40.555Z,31.86
2023-01-08T09:56:38.183Z,31.96
2023-01-08T09:57:35.611Z,31.38
2023-01-08T09:58:35.851Z,30.87
2023-01-08T09:59:33.350Z,30.10
2023-01-08T10:00:33.736Z,28.44
2023-01-08T10:01:38.690Z,32.18
2023-01-08T10:02:38.936Z,28.09
2023-01-08T10:03:47.682Z,28.26
2023-01-08T10:04:45.586Z,28.94
2023-01-08T10:05:42.977Z,27.84
2023-01-08T10:06:41.125Z,28.46
2023-01-08T10:07:39.941Z,28.76
2023-01-08T10:08:38.046Z,28.80
2023-01-08T10:09:35.481Z,28.68
2023-01-08T10:10:33.413Z,28.52
2023-01-08T10:11:40.269Z,28.84
2023-01-08T10:12:39.429Z,30.97
2023-01-08T10:13:42.264Z,31.34
2023-01-08T10:14:48.050Z,28.39
2023-01-08T10:15:45.581Z,27.25
2023-01-08T10:16:45.429Z,28.24
2023-01-08T10:17:49.068Z,27.42
2023-01-08T10:18:46.556Z,28.37
2023-01-08T10:19:45.348Z,26.95
2023-01-08T10:20:42.736Z,27.27
2023-01-08T10:21:41.116Z,26.65
2023-01-08T10:22:38.473Z,27.41
2023-01-08T10:23:35.802Z,26.43
2023-01-08T10:24:37.072Z,25.40
2023-01-08T10:25:47.088Z,25.53
2023-01-08T10:26:44.557Z,25.87
2023-01-08T10:28:08.216Z,27.30
2023-01-08T10:29:11.556Z,25.98
2023-01-08T10:30:15.274Z,26.34
2023-01-08T10:31:16.663Z,27.80
2023-01-08T10:32:18.721Z,27.51
2023-01-08T10:33:29.092Z,27.64
2023-01-08T10:34:28.461Z,27.79
2023-01-08T10:35:33.826Z,25.93
2023-01-08T10:36:31.269Z,27.13
2023-01-08T10:37:30.054Z,28.55
2023-01-08T10:38:33.652Z,28.49
2023-01-08T10:39:31.399Z,28.30
2023-01-08T10:40:31.673Z,27.16
2023-01-08T10:41:29.895Z,26.78
2023-01-08T10:42:27.452Z,25.86
2023-01-08T10:43:29.252Z,24.04
2023-01-08T10:44:26.875Z,24.92
2023-01-08T10:45:26.312Z,24.76
2023-01-08T10:46:25.854Z,24.33
2023-01-08T10:47:24.985Z,24.71
2023-01-08T10:48:32.819Z,25.48
2023-01-08T10:49:34.194Z,25.14
2023-01-08T10:50:33.236Z,24.61
2023-01-08T10:51:32.001Z,25.35
2023-01-08T10:52:36.488Z,24.30
2023-01-08T10:53:34.636Z,23.92
2023-01-08T10:54:36.875Z,24.06
2023-01-08T10:55:39.743Z,23.23
2023-01-08T10:56:44.807Z,23.20
2023-01-08T10:57:43.858Z,22.54
2023-01-08T10:58:42.174Z,21.49
2023-01-08T10:59:42.591Z,21.87
2023-01-08T11:00:40.094Z,21.40
2023-01-08T11:01:37.727Z,20.88
2023-01-08T11:02:39.886Z,20.89
2023-01-08T11:03:37.643Z,22.44
2023-01-08T11:04:36.759Z,22.55
2023-01-08T11:05:39.035Z,23.25
2023-01-08T11:06:44.407Z,22.53
2023-01-08T11:07:42.169Z,22.20
2023-01-08T11:08:50.773Z,21.74
2023-01-08T11:09:51.621Z,21.10
2023-01-08T11:10:56.647Z,20.73
2023-01-08T11:11:54.088Z,20.95
2023-01-08T11:12:55.538Z,20.30
2023-01-08T11:13:59.952Z,19.46
2023-01-08T11:14:57.564Z,20.09
2023-01-08T11:16:02.470Z,20.09
2023-01-08T11:17:00.209Z,20.28
2023-01-08T11:18:11.105Z,19.64
2023-01-08T11:19:24.437Z,19.82
2023-01-08T11:20:24.270Z,19.39
2023-01-08T11:21:26.740Z,19.50
2023-01-08T11:22:25.248Z,19.95
2023-01-08T11:23:24.904Z,19.55
2023-01-08T11:24:30.737Z,20.59
2023-01-08T11:25:31.050Z,20.83
2023-01-08T11:26:29.355Z,19.39
2023-01-08T11:27:33.331Z,18.66
2023-01-08T11:28:44.210Z,18.96
2023-01-08T11:29:47.212Z,18.61
2023-01-08T11:30:50.240Z,18.24
2023-01-08T11:32:09.465Z,18.07
2023-01-08T11:33:11.449Z,18.19
2023-01-08T11:34:28.144Z,18.32
2023-01-08T11:35:28.544Z,18.93
2023-01-08T11:36:35.156Z,18.46
2023-01-08T11:37:46.100Z,17.60
2023-01-08T11:38:43.637Z,17.36
2023-01-08T11:39:41.127Z,17.32
2023-01-08T11:40:51.833Z,18.54
2023-01-08T11:41:58.271Z,17.80
2023-01-08T11:43:06.734Z,17.87
2023-01-08T11:44:12.998Z,17.61
2023-01-08T11:45:33.487Z,18.10
2023-01-08T11:46:36.779Z,19.09
2023-01-08T11:47:52.886Z,18.52
2023-01-08T11:48:59.353Z,17.59
2023-01-08T11:50:02.660Z,17.75
2023-01-08T11:51:17.198Z,17.10
2023-01-08T11:52:14.521Z,17.65
2023-01-08T11:53:24.314Z,17.48
2023-01-08T11:54:50.800Z,17.76
2023-01-08T11:56:07.994Z,15.71
2023-01-08T11:57:05.330Z,16.71
2023-01-08T11:58:23.209Z,16.27
2023-01-08T11:59:23.325Z,16.34
2023-01-08T12:00:29.694Z,16.11
2023-01-08T12:01:30.007Z,16.16
2023-01-08T12:02:36.375Z,15.22
2023-01-08T12:03:36.678Z,16.47
2023-01-08T12:04:36.917Z,17.23
2023-01-08T12:05:43.312Z,16.84
2023-01-08T12:06:59.202Z,15.88
2023-01-08T12:07:56.588Z,15.58
2023-01-08T12:09:09.303Z,16.33
2023-01-08T12:10:26.853Z,16.99
2023-01-08T12:11:47.177Z,16.41
2023-01-08T12:12:56.617Z,18.03
2023-01-08T12:14:14.945Z,19.23
2023-01-08T12:15:15.184Z,19.21
2023-01-08T12:16:15.429Z,18.56
2023-01-08T12:17:18.650Z,16.83
2023-01-08T12:18:15.989Z,16.89
2023-01-08T12:19:16.116Z,16.92
2023-01-08T12:20:25.312Z,17.70
2023-01-08T12:21:22.645Z,18.33
2023-01-08T12:22:28.323Z,18.49
2023-01-08T12:23:37.739Z,19.05
2023-01-08T12:24:50.095Z,18.64
2023-01-08T12:25:50.399Z,18.73
2023-01-08T12:26:53.476Z,18.41
2023-01-08T12:27:57.827Z,18.36
2023-01-08T12:28:57.861Z,17.57
2023-01-08T12:30:14.746Z,17.20
2023-01-08T12:31:31.921Z,18.21
2023-01-08T12:32:36.445Z,17.38
2023-01-08T12:33:41.789Z,16.82
2023-01-08T12:34:41.882Z,16.38
2023-01-08T12:35:42.332Z,16.02
2023-01-08T12:36:44.068Z,17.07
2023-01-08T12:37:41.416Z,16.53
2023-01-08T12:38:44.676Z,15.14
2023-01-08T12:39:53.542Z,14.52
2023-01-08T12:41:00.439Z,14.07
2023-01-08T12:42:07.188Z,14.31
2023-01-08T12:43:08.417Z,14.26
2023-01-08T12:44:10.294Z,13.41
2023-01-08T12:45:14.958Z,13.88
2023-01-08T12:46:17.196Z,13.92
2023-01-08T12:47:18.820Z,13.79
2023-01-08T12:48:18.947Z,13.88
2023-01-08T12:49:24.464Z,14.21
2023-01-08T12:50:36.600Z,14.46
2023-01-08T12:51:56.230Z,14.24
2023-01-08T12:53:02.376Z,14.33
2023-01-08T12:54:14.614Z,14.53
2023-01-08T12:55:30.520Z,13.25
2023-01-08T12:56:46.486Z,13.39
2023-01-08T12:57:53.927Z,14.15
2023-01-08T12:59:02.776Z,14.30
2023-01-08T13:00:15.095Z,14.18
2023-01-08T13:01:27.837Z,13.80
2023-01-08T13:02:38.473Z,12.56
2023-01-08T13:03:36.193Z,13.31
2023-01-08T13:04:47.124Z,13.13
2023-01-08T13:05:44.828Z,13.33